sensor_id;sensor_type;location;lat;lon;timestamp;pressure;altitude;pressure_sealevel;temperature;humidity
21664;BME280;10993;52.510;13.456;2023-12-22T00:02:23;57091.31;;;-146.93;74.56
21664;BME280;10993;52.510;13.456;2023-12-22T00:07:28;57058.91;;;-146.93;73.67
21664;BME280;10993;52.510;13.456;2023-12-22T00:12:29;57048.78;;;-146.93;73.49
21664;BME280;10993;52.510;13.456;2023-12-22T00:17:31;56977.91;;;-146.93;73.05
21664;BME280;10993;52.510;13.456;2023-12-22T00:22:32;56975.88;;;-146.93;72.49
21664;BME280;10993;52.510;13.456;2023-12-22T00:27:32;57010.31;;;-146.93;73.10
21664;BME280;10993;52.510;13.456;2023-12-22T00:32:33;56983.97;;;-146.93;71.45
21664;BME280;10993;52.510;13.456;2023-12-22T00:37:34;56929.31;;;-146.93;70.56
21664;BME280;10993;52.510;13.456;2023-12-22T00:42:34;56929.31;;;-146.93;68.54
21664;BME280;10993;52.510;13.456;2023-12-22T00:47:36;56854.38;;;-146.93;68.12
21664;BME280;10993;52.510;13.456;2023-12-22T00:52:36;56894.88;;;-146.93;68.47
21664;BME280;10993;52.510;13.456;2023-12-22T00:57:36;56858.44;;;-146.93;68.72
21664;BME280;10993;52.510;13.456;2023-12-22T01:02:38;56951.59;;;-146.93;69.94
21664;BME280;10993;52.510;13.456;2023-12-22T01:07:38;56937.41;;;-146.93;71.01
21664;BME280;10993;52.510;13.456;2023-12-22T01:12:39;56994.09;;;-146.93;72.56
21664;BME280;10993;52.510;13.456;2023-12-22T01:17:40;56981.94;;;-146.93;73.31
21664;BME280;10993;52.510;13.456;2023-12-22T01:22:41;57054.84;;;-146.93;74.54
21664;BME280;10993;52.510;13.456;2023-12-22T01:27:41;57067.00;;;-146.93;75.39
21664;BME280;10993;52.510;13.456;2023-12-22T01:32:43;57062.94;;;-146.93;76.94
21664;BME280;10993;52.510;13.456;2023-12-22T01:37:43;57174.31;;;-146.93;77.17
21664;BME280;10993;52.510;13.456;2023-12-22T01:42:43;57158.13;;;-146.93;77.46
21664;BME280;10993;52.510;13.456;2023-12-22T01:47:47;57206.72;;;-146.93;77.65
21664;BME280;10993;52.510;13.456;2023-12-22T01:52:47;57202.69;;;-146.93;77.95
21664;BME280;10993;52.510;13.456;2023-12-22T01:57:48;57233.06;;;-146.93;78.73
21664;BME280;10993;52.510;13.456;2023-12-22T02:02:50;57182.44;;;-146.93;78.71
21664;BME280;10993;52.510;13.456;2023-12-22T02:07:51;57247.22;;;-146.93;78.68
21664;BME280;10993;52.510;13.456;2023-12-22T02:12:51;57251.28;;;-146.93;78.99
21664;BME280;10993;52.510;13.456;2023-12-22T02:17:55;57285.72;;;-146.93;79.40
21664;BME280;10993;52.510;13.456;2023-12-22T02:22:59;57318.09;;;-146.93;79.95
21664;BME280;10993;52.510;13.456;2023-12-22T02:28:04;57336.34;;;-146.93;80.64
21664;BME280;10993;52.510;13.456;2023-12-22T02:33:06;57249.25;;;-146.93;81.23
21664;BME280;10993;52.510;13.456;2023-12-22T02:38:09;57465.94;;;-146.93;82.14
21664;BME280;10993;52.510;13.456;2023-12-22T02:43:11;57439.63;;;-146.93;81.77
21664;BME280;10993;52.510;13.456;2023-12-22T02:48:11;57435.56;;;-146.93;81.85
21664;BME280;10993;52.510;13.456;2023-12-22T02:53:13;57376.84;;;-146.93;81.14
21664;BME280;10993;52.510;13.456;2023-12-22T02:58:13;57393.03;;;-146.93;80.95
21664;BME280;10993;52.510;13.456;2023-12-22T03:03:13;57202.69;;;-146.93;80.98
21664;BME280;10993;52.510;13.456;2023-12-22T03:08:16;57459.88;;;-146.93;81.67
21664;BME280;10993;52.510;13.456;2023-12-22T03:13:16;57455.81;;;-146.93;81.83
21664;BME280;10993;52.510;13.456;2023-12-22T03:18:16;57474.06;;;-146.93;81.92
21664;BME280;10993;52.510;13.456;2023-12-22T03:23:18;57480.13;;;-146.93;82.02
21664;BME280;10993;52.510;13.456;2023-12-22T03:28:18;57500.38;;;-146.93;82.47
21664;BME280;10993;52.510;13.456;2023-12-22T03:33:19;57524.69;;;-146.93;82.95
21664;BME280;10993;52.510;13.456;2023-12-22T03:38:20;57557.09;;;-146.93;83.16
21664;BME280;10993;52.510;13.456;2023-12-22T03:43:20;57553.03;;;-146.93;83.50
21664;BME280;10993;52.510;13.456;2023-12-22T03:48:21;57605.69;;;-146.93;83.49
21664;BME280;10993;52.510;13.456;2023-12-22T03:53:22;57605.69;;;-146.93;83.71
21664;BME280;10993;52.510;13.456;2023-12-22T03:58:23;57542.91;;;-146.93;83.45
21664;BME280;10993;52.510;13.456;2023-12-22T04:03:23;57502.41;;;-146.93;82.79
21664;BME280;10993;52.510;13.456;2023-12-22T04:08:25;57435.56;;;-146.93;82.32
21664;BME280;10993;52.510;13.456;2023-12-22T04:13:25;57510.50;;;-146.93;82.37
21664;BME280;10993;52.510;13.456;2023-12-22T04:18:26;57579.38;;;-146.93;83.10
21664;BME280;10993;52.510;13.456;2023-12-22T04:23:27;57731.25;;;-146.93;84.62
21664;BME280;10993;52.510;13.456;2023-12-22T04:28:28;57860.91;;;-146.93;85.64
21664;BME280;10993;52.510;13.456;2023-12-22T04:33:28;57968.25;;;-146.93;86.33
21664;BME280;10993;52.510;13.456;2023-12-22T04:38:30;57990.53;;;-146.93;86.63
21664;BME280;10993;52.510;13.456;2023-12-22T04:43:30;58164.72;;;-146.93;87.44
21664;BME280;10993;52.510;13.456;2023-12-22T04:48:30;57877.09;;;-146.93;87.04
21664;BME280;10993;52.510;13.456;2023-12-22T04:53:34;58166.75;;;-146.93;87.51
21664;BME280;10993;52.510;13.456;2023-12-22T04:58:34;58037.13;;;-146.93;86.78
21664;BME280;10993;52.510;13.456;2023-12-22T05:03:35;58227.53;;;-146.93;88.03
21664;BME280;10993;52.510;13.456;2023-12-22T05:08:36;59019.66;;;-146.93;90.78
21664;BME280;10993;52.510;13.456;2023-12-22T05:13:36;59955.88;;;-146.93;93.19
21664;BME280;10993;52.510;13.456;2023-12-22T05:18:37;60495.03;;;-146.93;94.41
21664;BME280;10993;52.510;13.456;2023-12-22T05:23:39;61881.81;;;-146.93;95.66
21664;BME280;10993;52.510;13.456;2023-12-22T05:28:39;62449.66;;;-146.93;96.32
21664;BME280;10993;52.510;13.456;2023-12-22T05:33:39;61991.31;;;-146.93;95.89
21664;BME280;10993;52.510;13.456;2023-12-22T05:38:41;62334.03;;;-146.93;96.08
21664;BME280;10993;52.510;13.456;2023-12-22T05:43:41;62721.44;;;-146.93;96.28
21664;BME280;10993;52.510;13.456;2023-12-22T05:48:42;62893.84;;;-146.93;96.43
21664;BME280;10993;52.510;13.456;2023-12-22T05:53:44;62498.31;;;-146.93;96.04
21664;BME280;10993;52.510;13.456;2023-12-22T05:58:45;63179.88;;;-146.93;96.38
21664;BME280;10993;52.510;13.456;2023-12-22T06:03:45;62388.81;;;-146.93;95.95
21664;BME280;10993;52.510;13.456;2023-12-22T06:08:47;61143.75;;;-146.93;94.68
21664;BME280;10993;52.510;13.456;2023-12-22T06:13:47;59331.69;;;-146.93;91.49
21664;BME280;10993;52.510;13.456;2023-12-22T06:18:48;59100.72;;;-146.93;90.71
21664;BME280;10993;52.510;13.456;2023-12-22T06:23:49;58691.44;;;-146.93;89.59
21664;BME280;10993;52.510;13.456;2023-12-22T06:28:49;58363.25;;;-146.93;89.14
21664;BME280;10993;52.510;13.456;2023-12-22T06:33:51;58359.19;;;-146.93;88.54
21664;BME280;10993;52.510;13.456;2023-12-22T06:38:53;58235.63;;;-146.93;87.84
21664;BME280;10993;52.510;13.456;2023-12-22T06:43:53;58284.25;;;-146.93;87.86
21664;BME280;10993;52.510;13.456;2023-12-22T06:48:54;59149.34;;;-146.93;87.44
21664;BME280;10993;52.510;13.456;2023-12-22T06:53:57;59441.13;;;-146.93;91.90
21664;BME280;10993;52.510;13.456;2023-12-22T06:59:00;60600.44;;;-146.93;94.24
21664;BME280;10993;52.510;13.456;2023-12-22T07:04:01;61816.91;;;-146.93;95.68
21664;BME280;10993;52.510;13.456;2023-12-22T07:09:28;63441.59;;;-146.93;97.12
21664;BME280;10993;52.510;13.456;2023-12-22T07:14:28;65724.75;;;-146.93;98.24
21664;BME280;10993;52.510;13.456;2023-12-22T07:19:29;66112.53;;;-146.93;98.48
21664;BME280;10993;52.510;13.456;2023-12-22T07:24:30;66524.72;;;-146.93;98.54
21664;BME280;10993;52.510;13.456;2023-12-22T07:29:31;66171.41;;;-146.93;98.29
21664;BME280;10993;52.510;13.456;2023-12-22T07:34:31;66386.66;;;-146.93;98.25
21664;BME280;10993;52.510;13.456;2023-12-22T07:39:33;64624.59;;;-146.93;96.75
21664;BME280;10993;52.510;13.456;2023-12-22T07:44:34;62332.03;;;-146.93;95.69
21664;BME280;10993;52.510;13.456;2023-12-22T07:49:34;60977.50;;;-146.93;94.05
21664;BME280;10993;52.510;13.456;2023-12-22T07:54:36;60268.00;;;-146.93;93.22
21664;BME280;10993;52.510;13.456;2023-12-22T07:59:36;60186.94;;;-146.93;93.21
21664;BME280;10993;52.510;13.456;2023-12-22T08:04:37;59809.94;;;-146.93;92.48
21664;BME280;10993;52.510;13.456;2023-12-22T08:09:38;59214.19;;;-146.93;90.94
21664;BME280;10993;52.510;13.456;2023-12-22T08:14:39;58845.41;;;-146.93;90.13
21664;BME280;10993;52.510;13.456;2023-12-22T08:19:39;58531.38;;;-146.93;89.16
21664;BME280;10993;52.510;13.456;2023-12-22T08:24:44;58391.59;;;-146.93;88.39
21664;BME280;10993;52.510;13.456;2023-12-22T08:29:45;59459.38;;;-146.93;87.13
21664;BME280;10993;52.510;13.456;2023-12-22T08:34:45;58055.34;;;-146.93;87.30
21664;BME280;10993;52.510;13.456;2023-12-22T08:39:47;58077.63;;;-146.93;86.95
21664;BME280;10993;52.510;13.456;2023-12-22T08:44:47;58045.22;;;-146.93;86.32
21664;BME280;10993;52.510;13.456;2023-12-22T08:49:47;57966.22;;;-146.93;85.93
21664;BME280;10993;52.510;13.456;2023-12-22T08:54:49;57814.31;;;-146.93;84.99
21664;BME280;10993;52.510;13.456;2023-12-22T08:59:49;57401.16;;;-146.93;80.35
21664;BME280;10993;52.510;13.456;2023-12-22T09:04:50;57336.34;;;-146.93;80.08
21664;BME280;10993;52.510;13.456;2023-12-22T09:09:52;57342.41;;;-146.93;80.08
21664;BME280;10993;52.510;13.456;2023-12-22T09:14:52;57354.56;;;-146.93;80.14
21664;BME280;10993;52.510;13.456;2023-12-22T09:19:53;57210.78;;;-146.93;76.64
21664;BME280;10993;52.510;13.456;2023-12-22T09:24:55;57172.31;;;-146.93;74.95
21664;BME280;10993;52.510;13.456;2023-12-22T09:29:55;56864.50;;;-146.93;66.26
21664;BME280;10993;52.510;13.456;2023-12-22T09:34:55;56892.84;;;-146.93;68.83
21664;BME280;10993;52.510;13.456;2023-12-22T09:40:00;56902.97;;;-146.93;69.17
21664;BME280;10993;52.510;13.456;2023-12-22T09:45:02;56872.59;;;-146.93;65.17
21664;BME280;10993;52.510;13.456;2023-12-22T09:50:04;56848.31;;;-146.93;62.62
21664;BME280;10993;52.510;13.456;2023-12-22T09:55:07;56860.47;;;-146.93;61.83
21664;BME280;10993;52.510;13.456;2023-12-22T10:00:09;56817.94;;;-146.93;58.74
21664;BME280;10993;52.510;13.456;2023-12-22T10:05:09;56743.03;;;-146.93;60.07
21664;BME280;10993;52.510;13.456;2023-12-22T10:10:12;56738.97;;;-146.93;62.59
21664;BME280;10993;52.510;13.456;2023-12-22T10:15:12;56787.56;;;-146.93;58.67
21664;BME280;10993;52.510;13.456;2023-12-22T10:20:13;56801.75;;;-146.93;61.52
21664;BME280;10993;52.510;13.456;2023-12-22T10:25:19;56726.81;;;-146.93;61.00
21664;BME280;10993;52.510;13.456;2023-12-22T10:30:20;56773.38;;;-146.93;54.66
21664;BME280;10993;52.510;13.456;2023-12-22T10:35:22;56775.41;;;-146.93;47.80
21664;BME280;10993;52.510;13.456;2023-12-22T10:40:23;56763.28;;;-146.93;47.21
21664;BME280;10993;52.510;13.456;2023-12-22T10:45:24;56787.56;;;-146.93;49.00
21664;BME280;10993;52.510;13.456;2023-12-22T10:50:25;56710.63;;;-146.93;46.01
21664;BME280;10993;52.510;13.456;2023-12-22T10:55:27;56718.72;;;-146.93;44.92
21664;BME280;10993;52.510;13.456;2023-12-22T11:00:27;56795.66;;;-146.93;44.03
21664;BME280;10993;52.510;13.456;2023-12-22T11:05:28;56791.63;;;-146.93;43.87
21664;BME280;10993;52.510;13.456;2023-12-22T11:10:31;56791.63;;;-146.93;43.26
21664;BME280;10993;52.510;13.456;2023-12-22T11:15:32;56793.63;;;-146.93;44.15
21664;BME280;10993;52.510;13.456;2023-12-22T11:20:34;56763.28;;;-146.93;43.05
21664;BME280;10993;52.510;13.456;2023-12-22T11:25:36;56730.88;;;-146.93;42.52
21664;BME280;10993;52.510;13.456;2023-12-22T11:30:38;56734.91;;;-146.93;42.53
21664;BME280;10993;52.510;13.456;2023-12-22T11:35:39;56755.16;;;-146.93;42.40
21664;BME280;10993;52.510;13.456;2023-12-22T11:40:41;56791.63;;;-146.93;41.24
21664;BME280;10993;52.510;13.456;2023-12-22T11:45:41;56826.03;;;-146.93;40.07
21664;BME280;10993;52.510;13.456;2023-12-22T11:50:43;56751.13;;;-146.93;40.27
21664;BME280;10993;52.510;13.456;2023-12-22T11:56:00;56696.44;;;-146.93;43.13
21664;BME280;10993;52.510;13.456;2023-12-22T12:01:01;56419.06;;;-146.93;42.93
21664;BME280;10993;52.510;13.456;2023-12-22T12:06:11;56714.66;;;-146.93;44.94
21664;BME280;10993;52.510;13.456;2023-12-22T12:11:15;56724.78;;;-146.93;50.71
21664;BME280;10993;52.510;13.456;2023-12-22T12:16:18;56706.56;;;-146.93;50.90
21664;BME280;10993;52.510;13.456;2023-12-22T12:21:21;56668.09;;;-146.93;50.62
21664;BME280;10993;52.510;13.456;2023-12-22T12:26:25;56686.31;;;-146.93;52.90
21664;BME280;10993;52.510;13.456;2023-12-22T12:31:35;56718.72;;;-146.93;54.74
21664;BME280;10993;52.510;13.456;2023-12-22T12:36:37;56686.31;;;-146.93;56.77
21664;BME280;10993;52.510;13.456;2023-12-22T12:41:41;56678.22;;;-146.93;58.61
21664;BME280;10993;52.510;13.456;2023-12-22T12:46:43;57597.59;;;-146.93;57.92
21664;BME280;10993;52.510;13.456;2023-12-22T12:51:46;56710.63;;;-146.93;60.01
21664;BME280;10993;52.510;13.456;2023-12-22T12:56:48;56676.19;;;-146.93;59.74
21664;BME280;10993;52.510;13.456;2023-12-22T13:01:48;56738.97;;;-146.93;59.76
21664;BME280;10993;52.510;13.456;2023-12-22T13:06:49;56743.03;;;-146.93;59.22
21664;BME280;10993;52.510;13.456;2023-12-22T13:11:51;56678.22;;;-146.93;60.58
21664;BME280;10993;52.510;13.456;2023-12-22T13:16:53;56664.06;;;-146.93;62.26
21664;BME280;10993;52.510;13.456;2023-12-22T13:21:56;56771.38;;;-146.93;63.73
21664;BME280;10993;52.510;13.456;2023-12-22T13:27:03;56775.41;;;-146.93;62.73
21664;BME280;10993;52.510;13.456;2023-12-22T13:32:06;56767.31;;;-146.93;62.59
21664;BME280;10993;52.510;13.456;2023-12-22T13:37:06;56775.41;;;-146.93;61.93
21664;BME280;10993;52.510;13.456;2023-12-22T13:42:14;56702.53;;;-146.93;62.10
21664;BME280;10993;52.510;13.456;2023-12-22T13:47:16;56734.91;;;-146.93;60.75
21664;BME280;10993;52.510;13.456;2023-12-22T13:52:26;56435.25;;;-146.93;60.33
21664;BME280;10993;52.510;13.456;2023-12-22T13:57:28;56732.91;;;-146.93;61.82
21664;BME280;10993;52.510;13.456;2023-12-22T14:02:29;56781.50;;;-146.93;61.78
21664;BME280;10993;52.510;13.456;2023-12-22T14:07:29;56759.22;;;-146.93;62.16
21664;BME280;10993;52.510;13.456;2023-12-22T14:12:31;56708.59;;;-146.93;63.42
21664;BME280;10993;52.510;13.456;2023-12-22T14:17:31;56716.69;;;-146.93;63.99
21664;BME280;10993;52.510;13.456;2023-12-22T14:22:31;56789.59;;;-146.93;65.66
21664;BME280;10993;52.510;13.456;2023-12-22T14:27:33;56741.00;;;-146.93;66.80
21664;BME280;10993;52.510;13.456;2023-12-22T14:32:33;56734.91;;;-146.93;69.59
21664;BME280;10993;52.510;13.456;2023-12-22T14:37:34;56826.03;;;-146.93;73.73
21664;BME280;10993;52.510;13.456;2023-12-22T14:42:35;56994.09;;;-146.93;75.92
21664;BME280;10993;52.510;13.456;2023-12-22T14:47:36;56996.13;;;-146.93;76.18
21664;BME280;10993;52.510;13.456;2023-12-22T14:52:36;56963.72;;;-146.93;76.59
21664;BME280;10993;52.510;13.456;2023-12-22T14:57:38;57004.22;;;-146.93;76.05
21664;BME280;10993;52.510;13.456;2023-12-22T15:02:39;56977.91;;;-146.93;75.39
21664;BME280;10993;52.510;13.456;2023-12-22T15:07:39;56955.63;;;-146.93;74.61
21664;BME280;10993;52.510;13.456;2023-12-22T15:12:41;56977.91;;;-146.93;74.01
21664;BME280;10993;52.510;13.456;2023-12-22T15:17:43;56953.59;;;-146.93;74.53
21664;BME280;10993;52.510;13.456;2023-12-22T15:22:43;56994.09;;;-146.93;74.51
21664;BME280;10993;52.510;13.456;2023-12-22T15:27:45;56977.91;;;-146.93;75.29
21664;BME280;10993;52.510;13.456;2023-12-22T15:32:45;56953.59;;;-146.93;75.70
21664;BME280;10993;52.510;13.456;2023-12-22T15:37:46;57018.41;;;-146.93;76.34
21664;BME280;10993;52.510;13.456;2023-12-22T15:42:47;57079.16;;;-146.93;77.32
21664;BME280;10993;52.510;13.456;2023-12-22T15:47:48;57091.31;;;-146.93;78.32
21664;BME280;10993;52.510;13.456;2023-12-22T15:52:48;57143.94;;;-146.93;78.84
21664;BME280;10993;52.510;13.456;2023-12-22T15:57:50;57141.94;;;-146.93;79.42
21664;BME280;10993;52.510;13.456;2023-12-22T16:02:50;56937.41;;;-146.93;80.21
21664;BME280;10993;52.510;13.456;2023-12-22T16:07:50;57245.22;;;-146.93;80.70
21664;BME280;10993;52.510;13.456;2023-12-22T16:12:52;57320.13;;;-146.93;81.73
21664;BME280;10993;52.510;13.456;2023-12-22T16:17:53;57346.47;;;-146.93;81.68
21664;BME280;10993;52.510;13.456;2023-12-22T16:22:53;57178.38;;;-146.93;82.18
21664;BME280;10993;52.510;13.456;2023-12-22T16:27:54;57348.50;;;-146.93;81.38
21664;BME280;10993;52.510;13.456;2023-12-22T16:32:55;57370.75;;;-146.93;81.74
21664;BME280;10993;52.510;13.456;2023-12-22T16:37:55;57186.47;;;-146.93;80.88
21664;BME280;10993;52.510;13.456;2023-12-22T16:42:57;57200.66;;;-146.93;80.52
21664;BME280;10993;52.510;13.456;2023-12-22T16:47:57;57192.56;;;-146.93;79.74
21664;BME280;10993;52.510;13.456;2023-12-22T16:53:00;57212.81;;;-146.93;79.40
21664;BME280;10993;52.510;13.456;2023-12-22T16:58:02;57188.50;;;-146.93;78.60
21664;BME280;10993;52.510;13.456;2023-12-22T17:03:03;57137.88;;;-146.93;78.66
21664;BME280;10993;52.510;13.456;2023-12-22T17:08:04;57131.81;;;-146.93;78.13
21664;BME280;10993;52.510;13.456;2023-12-22T17:13:05;57089.28;;;-146.93;77.97
21664;BME280;10993;52.510;13.456;2023-12-22T17:18:08;57152.06;;;-146.93;78.16
21664;BME280;10993;52.510;13.456;2023-12-22T17:23:08;57107.50;;;-146.93;77.97
21664;BME280;10993;52.510;13.456;2023-12-22T17:28:09;57139.91;;;-146.93;79.05
21664;BME280;10993;52.510;13.456;2023-12-22T17:33:10;57131.81;;;-146.93;78.38
21664;BME280;10993;52.510;13.456;2023-12-22T17:38:10;57123.69;;;-146.93;78.75
21664;BME280;10993;52.510;13.456;2023-12-22T17:43:12;57113.56;;;-146.93;79.24
21664;BME280;10993;52.510;13.456;2023-12-22T17:48:12;57170.28;;;-146.93;79.73
21664;BME280;10993;52.510;13.456;2023-12-22T17:53:13;57233.06;;;-146.93;80.28
21664;BME280;10993;52.510;13.456;2023-12-22T17:58:14;57123.69;;;-146.93;79.67
21664;BME280;10993;52.510;13.456;2023-12-22T18:03:14;57216.84;;;-146.93;79.94
21664;BME280;10993;52.510;13.456;2023-12-22T18:08:15;57224.97;;;-146.93;79.95
21664;BME280;10993;52.510;13.456;2023-12-22T18:13:17;57168.25;;;-146.93;80.38
21664;BME280;10993;52.510;13.456;2023-12-22T18:18:17;57216.84;;;-146.93;79.51
21664;BME280;10993;52.510;13.456;2023-12-22T18:23:17;57196.59;;;-146.93;79.84
21664;BME280;10993;52.510;13.456;2023-12-22T18:28:21;57176.34;;;-146.93;79.04
21664;BME280;10993;52.510;13.456;2023-12-22T18:33:21;57172.31;;;-146.93;79.12
21664;BME280;10993;52.510;13.456;2023-12-22T18:38:23;57172.31;;;-146.93;79.56
21664;BME280;10993;52.510;13.456;2023-12-22T18:43:25;57222.94;;;-146.93;78.97
21664;BME280;10993;52.510;13.456;2023-12-22T18:48:25;57133.81;;;-146.93;79.00
21664;BME280;10993;52.510;13.456;2023-12-22T18:53:26;57293.81;;;-146.93;78.46
21664;BME280;10993;52.510;13.456;2023-12-22T18:58:27;57131.81;;;-146.93;77.67
21664;BME280;10993;52.510;13.456;2023-12-22T19:03:29;57000.19;;;-146.93;77.84
21664;BME280;10993;52.510;13.456;2023-12-22T19:08:29;57111.56;;;-146.93;77.51
21664;BME280;10993;52.510;13.456;2023-12-22T19:13:31;57119.66;;;-146.93;78.04
21664;BME280;10993;52.510;13.456;2023-12-22T19:18:32;57079.16;;;-146.93;77.54
21664;BME280;10993;52.510;13.456;2023-12-22T19:23:32;57873.03;;;-146.93;76.90
21664;BME280;10993;52.510;13.456;2023-12-22T19:28:34;58503.03;;;-146.93;77.28
21664;BME280;10993;52.510;13.456;2023-12-22T19:33:34;57067.00;;;-146.93;76.69
21664;BME280;10993;52.510;13.456;2023-12-22T19:38:35;57083.19;;;-146.93;76.64
21664;BME280;10993;52.510;13.456;2023-12-22T19:43:36;57062.94;;;-146.93;77.34
21664;BME280;10993;52.510;13.456;2023-12-22T19:48:37;57085.22;;;-146.93;77.25
21664;BME280;10993;52.510;13.456;2023-12-22T19:53:37;57099.41;;;-146.93;77.52
21664;BME280;10993;52.510;13.456;2023-12-22T19:58:39;57105.47;;;-146.93;77.69
21664;BME280;10993;52.510;13.456;2023-12-22T20:03:39;56967.78;;;-146.93;77.42
21664;BME280;10993;52.510;13.456;2023-12-22T20:08:39;57006.25;;;-146.93;76.34
21664;BME280;10993;52.510;13.456;2023-12-22T20:13:42;57253.31;;;-146.93;75.73
21664;BME280;10993;52.510;13.456;2023-12-22T20:18:43;56917.16;;;-146.93;75.23
21664;BME280;10993;52.510;13.456;2023-12-22T20:23:43;57004.22;;;-146.93;75.32
21664;BME280;10993;52.510;13.456;2023-12-22T20:28:45;56410.97;;;-146.93;74.49
21664;BME280;10993;52.510;13.456;2023-12-22T20:33:45;56983.97;;;-146.93;74.06
21664;BME280;10993;52.510;13.456;2023-12-22T20:38:45;56911.09;;;-146.93;71.57
21664;BME280;10993;52.510;13.456;2023-12-22T20:43:47;56931.34;;;-146.93;71.60
21664;BME280;10993;52.510;13.456;2023-12-22T20:48:47;56919.19;;;-146.93;71.97
21664;BME280;10993;52.510;13.456;2023-12-22T20:53:48;56961.69;;;-146.93;74.08
21664;BME280;10993;52.510;13.456;2023-12-22T20:58:49;57152.06;;;-146.93;79.54
21664;BME280;10993;52.510;13.456;2023-12-22T21:03:50;57443.66;;;-146.93;85.01
21664;BME280;10993;52.510;13.456;2023-12-22T21:08:50;57978.38;;;-146.93;88.34
21664;BME280;10993;52.510;13.456;2023-12-22T21:13:52;58561.78;;;-146.93;91.60
21664;BME280;10993;52.510;13.456;2023-12-22T21:18:53;59631.63;;;-146.93;94.50
21664;BME280;10993;52.510;13.456;2023-12-22T21:23:53;61622.25;;;-146.93;96.51
21664;BME280;10993;52.510;13.456;2023-12-22T21:28:57;64344.53;;;-146.93;98.29
21664;BME280;10993;52.510;13.456;2023-12-22T21:33:58;66106.44;;;-146.93;98.85
21664;BME280;10993;52.510;13.456;2023-12-22T21:38:59;69084.28;;;-146.93;99.88
21664;BME280;10993;52.510;13.456;2023-12-22T21:44:00;71615.25;;;-146.93;100.00
21664;BME280;10993;52.510;13.456;2023-12-22T21:49:01;74135.88;;;-146.93;100.00
21664;BME280;10993;52.510;13.456;2023-12-22T21:54:01;75959.88;;;-146.93;100.00
21664;BME280;10993;52.510;13.456;2023-12-22T21:59:03;77524.06;;;-146.93;100.00
21664;BME280;10993;52.510;13.456;2023-12-22T22:04:03;77263.31;;;-146.93;100.00
21664;BME280;10993;52.510;13.456;2023-12-22T22:09:04;77002.59;;;-146.93;100.00
21664;BME280;10993;52.510;13.456;2023-12-22T22:14:07;77002.59;;;-146.93;100.00
21664;BME280;10993;52.510;13.456;2023-12-22T22:19:07;75959.88;;;-146.93;100.00
21664;BME280;10993;52.510;13.456;2023-12-22T22:24:08;76220.50;;;-146.93;100.00
21664;BME280;10993;52.510;13.456;2023-12-22T22:29:09;74917.47;;;-146.93;100.00
21664;BME280;10993;52.510;13.456;2023-12-22T22:34:11;72660.72;;;-146.93;100.00
21664;BME280;10993;52.510;13.456;2023-12-22T22:39:11;71104.84;;;-146.93;99.83
21664;BME280;10993;52.510;13.456;2023-12-22T22:44:13;70269.22;;;-146.93;99.74
21664;BME280;10993;52.510;13.456;2023-12-22T22:49:14;69376.94;;;-146.93;99.54
21664;BME280;10993;52.510;13.456;2023-12-22T22:54:15;69456.19;;;-146.93;99.38
21664;BME280;10993;52.510;13.456;2023-12-22T22:59:16;68452.34;;;-146.93;99.30
21664;BME280;10993;52.510;13.456;2023-12-22T23:04:17;70120.84;;;-146.93;99.70
21664;BME280;10993;52.510;13.456;2023-12-22T23:09:17;69844.38;;;-146.93;99.62
21664;BME280;10993;52.510;13.456;2023-12-22T23:14:19;70179.78;;;-146.93;99.74
21664;BME280;10993;52.510;13.456;2023-12-22T23:19:19;71192.28;;;-146.93;100.00
21664;BME280;10993;52.510;13.456;2023-12-22T23:24:19;73875.38;;;-146.93;100.00
21664;BME280;10993;52.510;13.456;2023-12-22T23:29:21;74917.47;;;-146.93;100.00
21664;BME280;10993;52.510;13.456;2023-12-22T23:34:21;76220.50;;;-146.93;100.00
21664;BME280;10993;52.510;13.456;2023-12-22T23:39:22;75959.88;;;-146.93;100.00
21664;BME280;10993;52.510;13.456;2023-12-22T23:44:23;77002.59;;;-146.93;100.00
21664;BME280;10993;52.510;13.456;2023-12-22T23:49:24;76220.50;;;-146.93;100.00
21664;BME280;10993;52.510;13.456;2023-12-22T23:54:24;76741.88;;;-146.93;100.00
21664;BME280;10993;52.510;13.456;2023-12-22T23:59:26;75699.25;;;-146.93;100.00
